Pan Amber — V7XS5 — position and weather

sailwx.info

Track history (hours):
 
Tides and Currents Weather Stations Pressure Air Temp Water Temp Dewpoint Dewpoint Depression Visibility Wind Speed Wind Dir Waves Ship Positions

Pan Amber

Last reported at 2018-May-25 04:08 UTC. Time now 2018-May-27 03:04 UTC.
Position N 23°45' E 065°12'.

Length 189 m; draft 9.5 m.

Type: Cargo ship. MMSI: 538004560.

Date/timePositionNaut miles runAvg speedWind from/ knotsBaromVisibWave heightAir tempDewpointWater temp
2018-May-25 04:08N 23°45' E 065°12'212.1
2018-May-25 04:00N 23°46' E 065°11'612.0
2018-May-25 03:30N 23°51' E 065°07'1611.1
2018-May-25 02:04N 24°01' E 064°54'212.1
2018-May-25 01:53N 24°01' E 064°51'5212.2
2018-May-24 21:40N 24°09' E 063°56'312.3
2018-May-24 21:25N 24°10' E 063°52'512.4
2018-May-24 20:59N 24°11' E 063°46'1012.4
2018-May-24 20:11N 24°12' E 063°36'612.6
2018-May-24 19:45N 24°13' E 063°30'312.5
2018-May-24 19:30N 24°14' E 063°26'1012.6
2018-May-24 18:45N 24°15' E 063°16'312.5
2018-May-24 18:30N 24°15' E 063°13'  
Track history (hours):
 
Tides and Currents Weather Stations Pressure Air Temp Water Temp Dewpoint Dewpoint Depression Visibility Wind Speed Wind Dir Waves Ship Positions

Pan Amber

Last reported at 2018-May-25 04:08 UTC. Time now 2018-May-27 03:04 UTC.
Position N 23°45' E 065°12'.

Length 189 m; draft 9.5 m.

Type: Cargo ship. MMSI: 538004560.

Date/timePositionNaut miles runAvg speedWind from/ knotsBaromVisibWave heightAir tempDewpointWater temp
2018-May-25 04:08N 23°45' E 065°12'212.1
2018-May-25 04:00N 23°46' E 065°11'612.0
2018-May-25 03:30N 23°51' E 065°07'1611.1
2018-May-25 02:04N 24°01' E 064°54'212.1
2018-May-25 01:53N 24°01' E 064°51'5212.2
2018-May-24 21:40N 24°09' E 063°56'312.3
2018-May-24 21:25N 24°10' E 063°52'512.4
2018-May-24 20:59N 24°11' E 063°46'1012.4
2018-May-24 20:11N 24°12' E 063°36'612.6
2018-May-24 19:45N 24°13' E 063°30'312.5
2018-May-24 19:30N 24°14' E 063°26'1012.6
2018-May-24 18:45N 24°15' E 063°16'312.5
2018-May-24 18:30N 24°15' E 063°13'  

Dump ship's entire track history